Ile De Groix — FGF7300 — position and weather

sailwx.info

Track history (hours):
 
Tides and Currents Weather Stations Pressure Air Temp Water Temp Dewpoint Dewpoint Depression Visibility Wind Speed Wind Dir Waves Ship Positions

Ile De Groix

Last reported at 2017-Aug-31 18:51 UTC. Time now 2017-Sep-23 05:56 UTC.
Position N 47°44' W 003°21'.
Warning: this ship's position is 22 days out of date.

Length 46 m; draft 2.8 m.

Type: Passenger vessel. MMSI: 227749270.

Date/timePositionNaut miles runAvg speedWind from/ knotsBaromVisibWave heightAir tempDewpointWater temp
2017-Aug-31 18:51N 47°44' W 003°21'0 0.2
2017-Aug-31 18:30N 47°44' W 003°21'4 8.4
2017-Aug-31 18:00N 47°41' W 003°24'3 5.6
2017-Aug-31 17:30N 47°39' W 003°27'2 4.4
2017-Aug-31 17:00N 47°40' W 003°25'5 9.5
2017-Aug-31 16:30N 47°44' W 003°21'0 0.0
2017-Aug-31 16:00N 47°44' W 003°21'4 8.9
2017-Aug-31 15:31N 47°41' W 003°25'3 5.1
2017-Aug-31 15:00N 47°39' W 003°27'2 3.6
2017-Aug-31 14:30N 47°40' W 003°25'510.4
2017-Aug-31 14:00N 47°44' W 003°21'0 0.1
2017-Aug-31 13:30N 47°44' W 003°21'0 0.0
2017-Aug-31 13:00N 47°44' W 003°21'0 0.0
2017-Aug-31 12:30N 47°44' W 003°21'0 0.0
2017-Aug-31 12:00N 47°44' W 003°21'0 0.0
2017-Aug-31 11:30N 47°44' W 003°21'0 0.0
2017-Aug-31 11:00N 47°44' W 003°21'0 0.0
2017-Aug-31 10:30N 47°44' W 003°21'0 0.0
2017-Aug-31 10:00N 47°44' W 003°21'5 9.1
2017-Aug-31 09:30N 47°41' W 003°25'2 4.9
2017-Aug-31 09:00N 47°39' W 003°27'0 0.0
2017-Aug-31 08:31N 47°39' W 003°27'510.7
2017-Aug-31 08:00N 47°43' W 003°22'2 3.3
2017-Aug-31 07:30N 47°44' W 003°21'0 0.0
2017-Aug-30 18:29N 47°44' W 003°21'4 8.3
2017-Aug-30 18:00N 47°41' W 003°24'3 6.0
2017-Aug-30 17:30N 47°39' W 003°27'2 4.8
2017-Aug-30 17:00N 47°41' W 003°25'5 9.2
2017-Aug-30 16:30N 47°44' W 003°21'0 0.0
2017-Aug-30 16:00N 47°44' W 003°21'5 9.8
2017-Aug-30 15:30N 47°40' W 003°25'2 4.3
2017-Aug-30 15:00N 47°39' W 003°27'2 3.6
2017-Aug-30 14:30N 47°40' W 003°25'510.5
2017-Aug-30 14:00N 47°44' W 003°21'0 0.0
2017-Aug-30 13:30N 47°44' W 003°21'0 0.0
2017-Aug-30 13:00N 47°44' W 003°21'0 0.0
2017-Aug-30 12:30N 47°44' W 003°21'0 0.0
2017-Aug-30 12:00N 47°44' W 003°21'0 0.0
2017-Aug-30 11:30N 47°44' W 003°21'0 0.0
2017-Aug-30 11:00N 47°44' W 003°21'0 0.0
2017-Aug-30 10:30N 47°44' W 003°21'1 1.1
2017-Aug-30 10:00N 47°44' W 003°21'611.2
2017-Aug-30 09:30N 47°39' W 003°26'1 1.8
2017-Aug-30 09:00N 47°39' W 003°27'0 0.0
2017-Aug-30 08:30N 47°39' W 003°27'5 9.3
2017-Aug-30 08:00N 47°42' W 003°22'2 4.9
2017-Aug-30 07:30N 47°44' W 003°21'0 0.1
2017-Aug-30 07:00N 47°44' W 003°21'1 0.1
2017-Aug-29 18:18N 47°44' W 003°21'310.9
2017-Aug-29 18:00N 47°41' W 003°24'3 6.4
2017-Aug-29 17:30N 47°39' W 003°27'2 4.1
2017-Aug-29 17:00N 47°40' W 003°25'5 9.9
2017-Aug-29 16:31N 47°44' W 003°21'0 0.0
2017-Aug-29 16:00N 47°44' W 003°21'4 8.8
2017-Aug-29 15:30N 47°41' W 003°25'3 5.2
2017-Aug-29 15:00N 47°39' W 003°27'2 4.0
2017-Aug-29 14:30N 47°40' W 003°25'5 9.9
2017-Aug-29 14:00N 47°44' W 003°21'0 0.0
2017-Aug-29 13:30N 47°44' W 003°21'0 0.0
2017-Aug-29 13:00N 47°44' W 003°21'0 0.0
2017-Aug-29 12:30N 47°44' W 003°21'0 0.0
2017-Aug-29 12:00N 47°44' W 003°21'0 0.0
2017-Aug-29 11:30N 47°44' W 003°21'0 0.0
2017-Aug-29 11:00N 47°44' W 003°21'0 0.0
2017-Aug-29 10:30N 47°44' W 003°21'0 0.1
2017-Aug-29 10:00N 47°44' W 003°21'510.1
2017-Aug-29 09:30N 47°40' W 003°25'2 4.0
2017-Aug-29 09:00N 47°39' W 003°27'0 0.0
2017-Aug-29 08:30N 47°39' W 003°27'510.2
2017-Aug-29 08:00N 47°43' W 003°22'2 3.9
2017-Aug-29 07:30N 47°44' W 003°21'0 0.0
2017-Aug-28 18:35N 47°44' W 003°21'0 0.1
2017-Aug-28 18:30N 47°44' W 003°21'4 8.7
2017-Aug-28 18:00N 47°41' W 003°25'3 5.3
2017-Aug-28 17:30N 47°39' W 003°27'3 6.0
2017-Aug-28 17:00N 47°41' W 003°24'4 8.0
2017-Aug-28 16:30N 47°44' W 003°21'0 0.0
2017-Aug-28 16:01N 47°44' W 003°21'510.2
2017-Aug-28 15:30N 47°40' W 003°25'2 3.8
2017-Aug-28 15:00N 47°39' W 003°27'3 6.1
2017-Aug-28 14:30N 47°41' W 003°24'4 7.9
2017-Aug-28 14:00N 47°44' W 003°21'0 0.0
2017-Aug-28 13:30N 47°44' W 003°21'0 0.0
2017-Aug-28 13:00N 47°44' W 003°21'0 0.0
2017-Aug-28 12:30N 47°44' W 003°21'0 0.0
2017-Aug-28 12:00N 47°44' W 003°21'0 0.0
2017-Aug-28 11:30N 47°44' W 003°21'0 0.0
2017-Aug-28 11:00N 47°44' W 003°21'0 0.0
2017-Aug-28 10:30N 47°44' W 003°21'0 0.0
2017-Aug-28 10:01N 47°44' W 003°21'5 9.9
2017-Aug-28 09:30N 47°40' W 003°25'2 4.1
2017-Aug-28 09:00N 47°39' W 003°27'0 0.0
2017-Aug-28 08:31N 47°39' W 003°27'510.8
2017-Aug-28 08:00N 47°43' W 003°22'2 3.2
2017-Aug-28 07:30N 47°44' W 003°21'0 0.1
2017-Aug-28 07:00N 47°44' W 003°21'0 0.0
2017-Aug-27 18:39N 47°44' W 003°21'0 0.0
2017-Aug-27 18:31N 47°44' W 003°21'5 9.8
2017-Aug-27 18:01N 47°40' W 003°25'2 4.2
2017-Aug-27 17:30N 47°39' W 003°27'3 6.1
2017-Aug-27 17:01N 47°41' W 003°24'4 8.0
2017-Aug-27 16:31N 47°44' W 003°21'1 1.1
2017-Aug-27 16:00N 47°44' W 003°21'611.4
2017-Aug-27 15:31N 47°39' W 003°26'1 1.5
2017-Aug-27 15:01N 47°39' W 003°27'3 5.2
2017-Aug-27 14:31N 47°41' W 003°25'4 8.7
2017-Aug-27 14:00N 47°44' W 003°21'0 0.0
2017-Aug-27 13:30N 47°44' W 003°21'0 0.0
2017-Aug-27 12:59N 47°44' W 003°21'0 0.0
2017-Aug-27 12:31N 47°44' W 003°21'0 0.0
2017-Aug-27 12:01N 47°44' W 003°21'0 0.0
2017-Aug-27 11:30N 47°44' W 003°21'0 0.0
2017-Aug-27 11:00N 47°44' W 003°21'0 0.0
2017-Aug-27 10:31N 47°44' W 003°21'0 0.3
2017-Aug-27 10:01N 47°44' W 003°21'510.2
2017-Aug-27 09:31N 47°40' W 003°25'2 3.6
2017-Aug-27 09:01N 47°39' W 003°27'3 5.2
2017-Aug-27 08:31N 47°41' W 003°25'4 8.8
2017-Aug-27 08:01N 47°44' W 003°21'0 0.0
2017-Aug-27 07:30N 47°44' W 003°21'0 0.0
2017-Aug-26 18:45N 47°44' W 003°21'0 0.1
2017-Aug-26 18:31N 47°44' W 003°21'5 9.4
2017-Aug-26 18:01N 47°40' W 003°25'2 4.6
2017-Aug-26 17:31N 47°39' W 003°27'3 6.3
2017-Aug-26 17:00N 47°41' W 003°24'4 7.7
2017-Aug-26 16:30N 47°44' W 003°21'0 0.8
2017-Aug-26 16:01N 47°44' W 003°21'611.4
2017-Aug-26 15:31N 47°39' W 003°26'1 1.9
2017-Aug-26 15:01N 47°39' W 003°27'7 7.0
2017-Aug-26 14:01N 47°44' W 003°21'0 0.0
2017-Aug-26 13:30N 47°44' W 003°21'0 0.0
2017-Aug-26 13:01N 47°44' W 003°21'0 0.0
2017-Aug-26 12:30N 47°44' W 003°21'0 0.0
2017-Aug-26 12:00N 47°44' W 003°21'0 0.0
2017-Aug-26 11:31N 47°44' W 003°21'0 0.0
2017-Aug-26 11:00N 47°44' W 003°21'0 0.0
2017-Aug-26 10:30N 47°44' W 003°21'0 0.1
2017-Aug-26 10:01N 47°44' W 003°21'510.5
2017-Aug-26 09:31N 47°40' W 003°25'2 3.5
2017-Aug-26 09:00N 47°39' W 003°27'0 0.0
2017-Aug-26 08:31N 47°39' W 003°27'510.7
2017-Aug-26 08:01N 47°43' W 003°22'2 3.4
2017-Aug-26 07:31N 47°44' W 003°21'0 0.1
2017-Aug-26 07:00N 47°44' W 003°21'0 0.0
2017-Aug-25 18:51N 47°44' W 003°21'0 0.4
2017-Aug-25 18:31N 47°44' W 003°21'611.4
2017-Aug-25 18:00N 47°40' W 003°26'1 2.5
2017-Aug-25 17:31N 47°39' W 003°27'4 8.7
2017-Aug-25 17:00N 47°42' W 003°22'3 5.5
2017-Aug-25 16:31N 47°44' W 003°21'1 2.0
2017-Aug-25 16:00N 47°44' W 003°22'611.4
2017-Aug-25 15:30N 47°39' W 003°27'0 0.6
2017-Aug-25 15:00N 47°39' W 003°27'3 6.2
2017-Aug-25 14:30N 47°41' W 003°24'4 3.9
2017-Aug-25 13:30N 47°44' W 003°21'0 0.0
2017-Aug-25 13:00N 47°44' W 003°21'0 0.0
2017-Aug-25 12:30N 47°44' W 003°21'0 0.0
2017-Aug-25 12:01N 47°44' W 003°21'0 0.0
2017-Aug-25 11:31N 47°44' W 003°21'0 0.0
2017-Aug-25 11:00N 47°44' W 003°21'0 0.0
2017-Aug-25 10:31N 47°44' W 003°21'1 2.4
2017-Aug-25 10:00N 47°43' W 003°22'5 9.8
2017-Aug-25 09:30N 47°39' W 003°26'1 1.8
2017-Aug-25 09:00N 47°39' W 003°27'0 0.0
2017-Aug-25 08:30N 47°39' W 003°27'611.3
2017-Aug-25 08:01N 47°43' W 003°22'1 2.7
2017-Aug-25 07:30N 47°44' W 003°21'0 0.0
2017-Aug-24 18:46N 47°44' W 003°21'0 0.1
2017-Aug-24 18:31N 47°44' W 003°21'5 9.6
2017-Aug-24 18:01N 47°40' W 003°25'2 4.4
2017-Aug-24 17:30N 47°39' W 003°27'4 7.1
2017-Aug-24 17:00N 47°41' W 003°23'4 7.0
2017-Aug-24 16:30N 47°44' W 003°21'1 1.1
2017-Aug-24 16:00N 47°44' W 003°21'611.2
2017-Aug-24 15:30N 47°39' W 003°26'1 1.7
2017-Aug-24 15:00N 47°39' W 003°27'3 5.7
2017-Aug-24 14:30N 47°41' W 003°24'4 8.3
2017-Aug-24 14:00N 47°44' W 003°21'0 0.0
2017-Aug-24 13:31N 47°44' W 003°21'0 0.0
2017-Aug-24 13:00N 47°44' W 003°21'0 0.0
2017-Aug-24 12:30N 47°44' W 003°21'0 0.0
2017-Aug-24 12:00N 47°44' W 003°21'0 0.0
2017-Aug-24 11:30N 47°44' W 003°21'0 0.0
2017-Aug-24 11:00N 47°44' W 003°21'0 0.0
2017-Aug-24 10:30N 47°44' W 003°21'1 2.5
2017-Aug-24 10:00N 47°43' W 003°22'510.3
2017-Aug-24 09:30N 47°39' W 003°26'1 1.2
2017-Aug-24 09:00N 47°39' W 003°27'1 2.1
2017-Aug-24 08:30N 47°40' W 003°26'611.4
2017-Aug-24 08:01N 47°44' W 003°21'0 0.5
2017-Aug-24 07:30N 47°44' W 003°21'0 0.0
2017-Aug-23 18:33N 47°44' W 003°21'0 0.0
2017-Aug-23 18:30N 47°44' W 003°21'4 8.9
2017-Aug-23 18:01N 47°41' W 003°25'3 5.1
2017-Aug-23 17:30N 47°39' W 003°27'4 8.0
2017-Aug-23 17:00N 47°42' W 003°23'3 6.2
2017-Aug-23 16:30N 47°44' W 003°21'2 3.4
2017-Aug-23 16:00N 47°43' W 003°22'510.8
2017-Aug-23 15:30N 47°39' W 003°27'0 0.0
2017-Aug-23 15:00N 47°39' W 003°27'3 6.9
2017-Aug-23 14:30N 47°41' W 003°24'4 3.6
2017-Aug-23 13:31N 47°44' W 003°21'0 0.0
2017-Aug-23 13:00N 47°44' W 003°21'0 0.0
2017-Aug-23 12:31N 47°44' W 003°21'0 0.0
2017-Aug-23 12:00N 47°44' W 003°21'0 0.0
2017-Aug-23 11:31N 47°44' W 003°21'0 0.0
2017-Aug-23 11:01N 47°44' W 003°21'0 0.0
2017-Aug-23 10:31N 47°44' W 003°21'0 0.1
2017-Aug-23 10:00N 47°44' W 003°21'510.0
2017-Aug-23 09:31N 47°40' W 003°25'2 4.0
2017-Aug-23 09:01N 47°39' W 003°27'0 0.4
2017-Aug-23 08:31N 47°39' W 003°27'611.6
2017-Aug-23 08:00N 47°44' W 003°22'1 1.9
2017-Aug-23 07:30N 47°44' W 003°21'0 0.1
2017-Aug-23 07:00N 47°44' W 003°21'0 0.0
2017-Aug-22 18:56N 47°44' W 003°21'0 0.9
2017-Aug-22 18:30N 47°44' W 003°21'510.9
2017-Aug-22 18:00N 47°40' W 003°26'1 2.4
2017-Aug-22 17:30N 47°39' W 003°27'5 9.8
2017-Aug-22 17:00N 47°42' W 003°22'2 4.4
2017-Aug-22 16:31N 47°44' W 003°21'2 4.3
2017-Aug-22 16:01N 47°42' W 003°22'5 9.9
2017-Aug-22 15:30N 47°39' W 003°27'0 0.0
2017-Aug-22 15:00N 47°39' W 003°27'3 6.3
2017-Aug-22 14:31N 47°41' W 003°24'4 7.8
2017-Aug-22 14:00N 47°44' W 003°21'0 0.0
2017-Aug-22 13:31N 47°44' W 003°21'0 0.0
2017-Aug-22 13:01N 47°44' W 003°21'0 0.0
2017-Aug-22 12:31N 47°44' W 003°21'0 0.0
2017-Aug-22 12:01N 47°44' W 003°21'0 0.0
2017-Aug-22 11:31N 47°44' W 003°21'0 0.0
2017-Aug-22 11:00N 47°44' W 003°21'0 0.0
2017-Aug-22 10:30N 47°44' W 003°21'0 0.9
2017-Aug-22 10:00N 47°44' W 003°21'510.4
2017-Aug-22 09:30N 47°40' W 003°26'1 2.7
2017-Aug-22 09:01N 47°39' W 003°27'1 1.3
2017-Aug-22 08:30N 47°39' W 003°26'611.4
2017-Aug-22 08:01N 47°44' W 003°21'1 1.3
2017-Aug-22 07:30N 47°44' W 003°21'0 0.1
2017-Aug-22 07:01N 47°44' W 003°21'  
Track history (hours):
 
Tides and Currents Weather Stations Pressure Air Temp Water Temp Dewpoint Dewpoint Depression Visibility Wind Speed Wind Dir Waves Ship Positions

Ile De Groix

Last reported at 2017-Aug-31 18:51 UTC. Time now 2017-Sep-23 05:56 UTC.
Position N 47°44' W 003°21'.
Warning: this ship's position is 22 days out of date.

Length 46 m; draft 2.8 m.

Type: Passenger vessel. MMSI: 227749270.

Date/timePositionNaut miles runAvg speedWind from/ knotsBaromVisibWave heightAir tempDewpointWater temp
2017-Aug-31 18:51N 47°44' W 003°21'0 0.2
2017-Aug-31 18:30N 47°44' W 003°21'4 8.4
2017-Aug-31 18:00N 47°41' W 003°24'3 5.6
2017-Aug-31 17:30N 47°39' W 003°27'2 4.4
2017-Aug-31 17:00N 47°40' W 003°25'5 9.5
2017-Aug-31 16:30N 47°44' W 003°21'0 0.0
2017-Aug-31 16:00N 47°44' W 003°21'4 8.9
2017-Aug-31 15:31N 47°41' W 003°25'3 5.1
2017-Aug-31 15:00N 47°39' W 003°27'2 3.6
2017-Aug-31 14:30N 47°40' W 003°25'510.4
2017-Aug-31 14:00N 47°44' W 003°21'0 0.1
2017-Aug-31 13:30N 47°44' W 003°21'0 0.0
2017-Aug-31 13:00N 47°44' W 003°21'0 0.0
2017-Aug-31 12:30N 47°44' W 003°21'0 0.0
2017-Aug-31 12:00N 47°44' W 003°21'0 0.0
2017-Aug-31 11:30N 47°44' W 003°21'0 0.0
2017-Aug-31 11:00N 47°44' W 003°21'0 0.0
2017-Aug-31 10:30N 47°44' W 003°21'0 0.0
2017-Aug-31 10:00N 47°44' W 003°21'5 9.1
2017-Aug-31 09:30N 47°41' W 003°25'2 4.9
2017-Aug-31 09:00N 47°39' W 003°27'0 0.0
2017-Aug-31 08:31N 47°39' W 003°27'510.7
2017-Aug-31 08:00N 47°43' W 003°22'2 3.3
2017-Aug-31 07:30N 47°44' W 003°21'0 0.0
2017-Aug-30 18:29N 47°44' W 003°21'4 8.3
2017-Aug-30 18:00N 47°41' W 003°24'3 6.0
2017-Aug-30 17:30N 47°39' W 003°27'2 4.8
2017-Aug-30 17:00N 47°41' W 003°25'5 9.2
2017-Aug-30 16:30N 47°44' W 003°21'0 0.0
2017-Aug-30 16:00N 47°44' W 003°21'5 9.8
2017-Aug-30 15:30N 47°40' W 003°25'2 4.3
2017-Aug-30 15:00N 47°39' W 003°27'2 3.6
2017-Aug-30 14:30N 47°40' W 003°25'510.5
2017-Aug-30 14:00N 47°44' W 003°21'0 0.0
2017-Aug-30 13:30N 47°44' W 003°21'0 0.0
2017-Aug-30 13:00N 47°44' W 003°21'0 0.0
2017-Aug-30 12:30N 47°44' W 003°21'0 0.0
2017-Aug-30 12:00N 47°44' W 003°21'0 0.0
2017-Aug-30 11:30N 47°44' W 003°21'0 0.0
2017-Aug-30 11:00N 47°44' W 003°21'0 0.0
2017-Aug-30 10:30N 47°44' W 003°21'1 1.1
2017-Aug-30 10:00N 47°44' W 003°21'611.2
2017-Aug-30 09:30N 47°39' W 003°26'1 1.8
2017-Aug-30 09:00N 47°39' W 003°27'0 0.0
2017-Aug-30 08:30N 47°39' W 003°27'5 9.3
2017-Aug-30 08:00N 47°42' W 003°22'2 4.9
2017-Aug-30 07:30N 47°44' W 003°21'0 0.1
2017-Aug-30 07:00N 47°44' W 003°21'1 0.1
2017-Aug-29 18:18N 47°44' W 003°21'310.9
2017-Aug-29 18:00N 47°41' W 003°24'3 6.4
2017-Aug-29 17:30N 47°39' W 003°27'2 4.1
2017-Aug-29 17:00N 47°40' W 003°25'5 9.9
2017-Aug-29 16:31N 47°44' W 003°21'0 0.0
2017-Aug-29 16:00N 47°44' W 003°21'4 8.8
2017-Aug-29 15:30N 47°41' W 003°25'3 5.2
2017-Aug-29 15:00N 47°39' W 003°27'2 4.0
2017-Aug-29 14:30N 47°40' W 003°25'5 9.9
2017-Aug-29 14:00N 47°44' W 003°21'0 0.0
2017-Aug-29 13:30N 47°44' W 003°21'0 0.0
2017-Aug-29 13:00N 47°44' W 003°21'0 0.0
2017-Aug-29 12:30N 47°44' W 003°21'0 0.0
2017-Aug-29 12:00N 47°44' W 003°21'0 0.0
2017-Aug-29 11:30N 47°44' W 003°21'0 0.0
2017-Aug-29 11:00N 47°44' W 003°21'0 0.0
2017-Aug-29 10:30N 47°44' W 003°21'0 0.1
2017-Aug-29 10:00N 47°44' W 003°21'510.1
2017-Aug-29 09:30N 47°40' W 003°25'2 4.0
2017-Aug-29 09:00N 47°39' W 003°27'0 0.0
2017-Aug-29 08:30N 47°39' W 003°27'510.2
2017-Aug-29 08:00N 47°43' W 003°22'2 3.9
2017-Aug-29 07:30N 47°44' W 003°21'0 0.0
2017-Aug-28 18:35N 47°44' W 003°21'0 0.1
2017-Aug-28 18:30N 47°44' W 003°21'4 8.7
2017-Aug-28 18:00N 47°41' W 003°25'3 5.3
2017-Aug-28 17:30N 47°39' W 003°27'3 6.0
2017-Aug-28 17:00N 47°41' W 003°24'4 8.0
2017-Aug-28 16:30N 47°44' W 003°21'0 0.0
2017-Aug-28 16:01N 47°44' W 003°21'510.2
2017-Aug-28 15:30N 47°40' W 003°25'2 3.8
2017-Aug-28 15:00N 47°39' W 003°27'3 6.1
2017-Aug-28 14:30N 47°41' W 003°24'4 7.9
2017-Aug-28 14:00N 47°44' W 003°21'0 0.0
2017-Aug-28 13:30N 47°44' W 003°21'0 0.0
2017-Aug-28 13:00N 47°44' W 003°21'0 0.0
2017-Aug-28 12:30N 47°44' W 003°21'0 0.0
2017-Aug-28 12:00N 47°44' W 003°21'0 0.0
2017-Aug-28 11:30N 47°44' W 003°21'0 0.0
2017-Aug-28 11:00N 47°44' W 003°21'0 0.0
2017-Aug-28 10:30N 47°44' W 003°21'0 0.0
2017-Aug-28 10:01N 47°44' W 003°21'5 9.9
2017-Aug-28 09:30N 47°40' W 003°25'2 4.1
2017-Aug-28 09:00N 47°39' W 003°27'0 0.0
2017-Aug-28 08:31N 47°39' W 003°27'510.8
2017-Aug-28 08:00N 47°43' W 003°22'2 3.2
2017-Aug-28 07:30N 47°44' W 003°21'0 0.1
2017-Aug-28 07:00N 47°44' W 003°21'0 0.0
2017-Aug-27 18:39N 47°44' W 003°21'0 0.0
2017-Aug-27 18:31N 47°44' W 003°21'5 9.8
2017-Aug-27 18:01N 47°40' W 003°25'2 4.2
2017-Aug-27 17:30N 47°39' W 003°27'3 6.1
2017-Aug-27 17:01N 47°41' W 003°24'4 8.0
2017-Aug-27 16:31N 47°44' W 003°21'1 1.1
2017-Aug-27 16:00N 47°44' W 003°21'611.4
2017-Aug-27 15:31N 47°39' W 003°26'1 1.5
2017-Aug-27 15:01N 47°39' W 003°27'3 5.2
2017-Aug-27 14:31N 47°41' W 003°25'4 8.7
2017-Aug-27 14:00N 47°44' W 003°21'0 0.0
2017-Aug-27 13:30N 47°44' W 003°21'0 0.0
2017-Aug-27 12:59N 47°44' W 003°21'0 0.0
2017-Aug-27 12:31N 47°44' W 003°21'0 0.0
2017-Aug-27 12:01N 47°44' W 003°21'0 0.0
2017-Aug-27 11:30N 47°44' W 003°21'0 0.0
2017-Aug-27 11:00N 47°44' W 003°21'0 0.0
2017-Aug-27 10:31N 47°44' W 003°21'0 0.3
2017-Aug-27 10:01N 47°44' W 003°21'510.2
2017-Aug-27 09:31N 47°40' W 003°25'2 3.6
2017-Aug-27 09:01N 47°39' W 003°27'3 5.2
2017-Aug-27 08:31N 47°41' W 003°25'4 8.8
2017-Aug-27 08:01N 47°44' W 003°21'0 0.0
2017-Aug-27 07:30N 47°44' W 003°21'0 0.0
2017-Aug-26 18:45N 47°44' W 003°21'0 0.1
2017-Aug-26 18:31N 47°44' W 003°21'5 9.4
2017-Aug-26 18:01N 47°40' W 003°25'2 4.6
2017-Aug-26 17:31N 47°39' W 003°27'3 6.3
2017-Aug-26 17:00N 47°41' W 003°24'4 7.7
2017-Aug-26 16:30N 47°44' W 003°21'0 0.8
2017-Aug-26 16:01N 47°44' W 003°21'611.4
2017-Aug-26 15:31N 47°39' W 003°26'1 1.9
2017-Aug-26 15:01N 47°39' W 003°27'7 7.0
2017-Aug-26 14:01N 47°44' W 003°21'0 0.0
2017-Aug-26 13:30N 47°44' W 003°21'0 0.0
2017-Aug-26 13:01N 47°44' W 003°21'0 0.0
2017-Aug-26 12:30N 47°44' W 003°21'0 0.0
2017-Aug-26 12:00N 47°44' W 003°21'0 0.0
2017-Aug-26 11:31N 47°44' W 003°21'0 0.0
2017-Aug-26 11:00N 47°44' W 003°21'0 0.0
2017-Aug-26 10:30N 47°44' W 003°21'0 0.1
2017-Aug-26 10:01N 47°44' W 003°21'510.5
2017-Aug-26 09:31N 47°40' W 003°25'2 3.5
2017-Aug-26 09:00N 47°39' W 003°27'0 0.0
2017-Aug-26 08:31N 47°39' W 003°27'510.7
2017-Aug-26 08:01N 47°43' W 003°22'2 3.4
2017-Aug-26 07:31N 47°44' W 003°21'0 0.1
2017-Aug-26 07:00N 47°44' W 003°21'0 0.0
2017-Aug-25 18:51N 47°44' W 003°21'0 0.4
2017-Aug-25 18:31N 47°44' W 003°21'611.4
2017-Aug-25 18:00N 47°40' W 003°26'1 2.5
2017-Aug-25 17:31N 47°39' W 003°27'4 8.7
2017-Aug-25 17:00N 47°42' W 003°22'3 5.5
2017-Aug-25 16:31N 47°44' W 003°21'1 2.0
2017-Aug-25 16:00N 47°44' W 003°22'611.4
2017-Aug-25 15:30N 47°39' W 003°27'0 0.6
2017-Aug-25 15:00N 47°39' W 003°27'3 6.2
2017-Aug-25 14:30N 47°41' W 003°24'4 3.9
2017-Aug-25 13:30N 47°44' W 003°21'0 0.0
2017-Aug-25 13:00N 47°44' W 003°21'0 0.0
2017-Aug-25 12:30N 47°44' W 003°21'0 0.0
2017-Aug-25 12:01N 47°44' W 003°21'0 0.0
2017-Aug-25 11:31N 47°44' W 003°21'0 0.0
2017-Aug-25 11:00N 47°44' W 003°21'0 0.0
2017-Aug-25 10:31N 47°44' W 003°21'1 2.4
2017-Aug-25 10:00N 47°43' W 003°22'5 9.8
2017-Aug-25 09:30N 47°39' W 003°26'1 1.8
2017-Aug-25 09:00N 47°39' W 003°27'0 0.0
2017-Aug-25 08:30N 47°39' W 003°27'611.3
2017-Aug-25 08:01N 47°43' W 003°22'1 2.7
2017-Aug-25 07:30N 47°44' W 003°21'0 0.0
2017-Aug-24 18:46N 47°44' W 003°21'0 0.1
2017-Aug-24 18:31N 47°44' W 003°21'5 9.6
2017-Aug-24 18:01N 47°40' W 003°25'2 4.4
2017-Aug-24 17:30N 47°39' W 003°27'4 7.1
2017-Aug-24 17:00N 47°41' W 003°23'4 7.0
2017-Aug-24 16:30N 47°44' W 003°21'1 1.1
2017-Aug-24 16:00N 47°44' W 003°21'611.2
2017-Aug-24 15:30N 47°39' W 003°26'1 1.7
2017-Aug-24 15:00N 47°39' W 003°27'3 5.7
2017-Aug-24 14:30N 47°41' W 003°24'4 8.3
2017-Aug-24 14:00N 47°44' W 003°21'0 0.0
2017-Aug-24 13:31N 47°44' W 003°21'0 0.0
2017-Aug-24 13:00N 47°44' W 003°21'0 0.0
2017-Aug-24 12:30N 47°44' W 003°21'0 0.0
2017-Aug-24 12:00N 47°44' W 003°21'0 0.0
2017-Aug-24 11:30N 47°44' W 003°21'0 0.0
2017-Aug-24 11:00N 47°44' W 003°21'0 0.0
2017-Aug-24 10:30N 47°44' W 003°21'1 2.5
2017-Aug-24 10:00N 47°43' W 003°22'510.3
2017-Aug-24 09:30N 47°39' W 003°26'1 1.2
2017-Aug-24 09:00N 47°39' W 003°27'1 2.1
2017-Aug-24 08:30N 47°40' W 003°26'611.4
2017-Aug-24 08:01N 47°44' W 003°21'0 0.5
2017-Aug-24 07:30N 47°44' W 003°21'0 0.0
2017-Aug-23 18:33N 47°44' W 003°21'0 0.0
2017-Aug-23 18:30N 47°44' W 003°21'4 8.9
2017-Aug-23 18:01N 47°41' W 003°25'3 5.1
2017-Aug-23 17:30N 47°39' W 003°27'4 8.0
2017-Aug-23 17:00N 47°42' W 003°23'3 6.2
2017-Aug-23 16:30N 47°44' W 003°21'2 3.4
2017-Aug-23 16:00N 47°43' W 003°22'510.8
2017-Aug-23 15:30N 47°39' W 003°27'0 0.0
2017-Aug-23 15:00N 47°39' W 003°27'3 6.9
2017-Aug-23 14:30N 47°41' W 003°24'4 3.6
2017-Aug-23 13:31N 47°44' W 003°21'0 0.0
2017-Aug-23 13:00N 47°44' W 003°21'0 0.0
2017-Aug-23 12:31N 47°44' W 003°21'0 0.0
2017-Aug-23 12:00N 47°44' W 003°21'0 0.0
2017-Aug-23 11:31N 47°44' W 003°21'0 0.0
2017-Aug-23 11:01N 47°44' W 003°21'0 0.0
2017-Aug-23 10:31N 47°44' W 003°21'0 0.1
2017-Aug-23 10:00N 47°44' W 003°21'510.0
2017-Aug-23 09:31N 47°40' W 003°25'2 4.0
2017-Aug-23 09:01N 47°39' W 003°27'0 0.4
2017-Aug-23 08:31N 47°39' W 003°27'611.6
2017-Aug-23 08:00N 47°44' W 003°22'1 1.9
2017-Aug-23 07:30N 47°44' W 003°21'0 0.1
2017-Aug-23 07:00N 47°44' W 003°21'0 0.0
2017-Aug-22 18:56N 47°44' W 003°21'0 0.9
2017-Aug-22 18:30N 47°44' W 003°21'510.9
2017-Aug-22 18:00N 47°40' W 003°26'1 2.4
2017-Aug-22 17:30N 47°39' W 003°27'5 9.8
2017-Aug-22 17:00N 47°42' W 003°22'2 4.4
2017-Aug-22 16:31N 47°44' W 003°21'2 4.3
2017-Aug-22 16:01N 47°42' W 003°22'5 9.9
2017-Aug-22 15:30N 47°39' W 003°27'0 0.0
2017-Aug-22 15:00N 47°39' W 003°27'3 6.3
2017-Aug-22 14:31N 47°41' W 003°24'4 7.8
2017-Aug-22 14:00N 47°44' W 003°21'0 0.0
2017-Aug-22 13:31N 47°44' W 003°21'0 0.0
2017-Aug-22 13:01N 47°44' W 003°21'0 0.0
2017-Aug-22 12:31N 47°44' W 003°21'0 0.0
2017-Aug-22 12:01N 47°44' W 003°21'0 0.0
2017-Aug-22 11:31N 47°44' W 003°21'0 0.0
2017-Aug-22 11:00N 47°44' W 003°21'0 0.0
2017-Aug-22 10:30N 47°44' W 003°21'0 0.9
2017-Aug-22 10:00N 47°44' W 003°21'510.4
2017-Aug-22 09:30N 47°40' W 003°26'1 2.7
2017-Aug-22 09:01N 47°39' W 003°27'1 1.3
2017-Aug-22 08:30N 47°39' W 003°26'611.4
2017-Aug-22 08:01N 47°44' W 003°21'1 1.3
2017-Aug-22 07:30N 47°44' W 003°21'0 0.1
2017-Aug-22 07:01N 47°44' W 003°21'  

Dump ship's entire track history